Weather at Moi Air Base

Public forecast

Using degrees Celsius for public forecast. Weather courtesy of forecast.io.

Closest aviation weather report (METAR) to Moi Air Base

Closest report is Nairobi Wilson Airport, 3.9 nm (7.2 km) SW.

2024/07/17 12:00 (retrieved 1 hour ago)

HKNW 171200Z 00000KT 9999 BKN023 22/13 Q1023

Closest aviation forecast (TAF) to Moi Air Base

Closest forecast is Nairobi Wilson Airport, 3.9 nm (7.2 km) SW.

2024/07/17 12:42 (retrieved 36 minutes ago)

TAF HKNW 171100Z 1712/1812 14010KT 9999 BKN025 PROB40 TEMPO 1714/1718 -SHRA FEW021CB SCT022 BKN080 BECMG 1720/1723 22005KT SCT020 BECMG 1801/1804 -DZ SCT007 BKN016 BECMG 1806/1809 14010KT BKN025